sensor_id;sensor_type;location;lat;lon;timestamp;P1;durP1;ratioP1;P2;durP2;ratioP2
21862;SDS011;11096;51.338;12.524;2022-08-21T00:02:02;89.95;;;48.40;;
21862;SDS011;11096;51.338;12.524;2022-08-21T00:04:28;88.35;;;48.50;;
21862;SDS011;11096;51.338;12.524;2022-08-21T00:06:54;89.68;;;49.30;;
21862;SDS011;11096;51.338;12.524;2022-08-21T00:09:19;84.65;;;47.35;;
21862;SDS011;11096;51.338;12.524;2022-08-21T00:11:45;83.68;;;47.03;;
21862;SDS011;11096;51.338;12.524;2022-08-21T00:14:14;77.72;;;44.45;;
21862;SDS011;11096;51.338;12.524;2022-08-21T00:16:40;77.80;;;44.40;;
21862;SDS011;11096;51.338;12.524;2022-08-21T00:19:06;84.65;;;44.83;;
21862;SDS011;11096;51.338;12.524;2022-08-21T00:21:32;82.38;;;42.25;;
21862;SDS011;11096;51.338;12.524;2022-08-21T00:23:59;72.70;;;41.88;;
21862;SDS011;11096;51.338;12.524;2022-08-21T00:26:24;79.10;;;43.60;;
21862;SDS011;11096;51.338;12.524;2022-08-21T00:28:51;75.72;;;42.75;;
21862;SDS011;11096;51.338;12.524;2022-08-21T00:31:16;71.57;;;41.70;;
21862;SDS011;11096;51.338;12.524;2022-08-21T00:33:43;73.57;;;41.90;;
21862;SDS011;11096;51.338;12.524;2022-08-21T00:36:09;74.32;;;43.25;;
21862;SDS011;11096;51.338;12.524;2022-08-21T00:38:35;78.75;;;43.45;;
21862;SDS011;11096;51.338;12.524;2022-08-21T00:41:02;77.88;;;41.22;;
21862;SDS011;11096;51.338;12.524;2022-08-21T00:43:30;75.45;;;41.10;;
21862;SDS011;11096;51.338;12.524;2022-08-21T00:45:58;72.47;;;40.40;;
21862;SDS011;11096;51.338;12.524;2022-08-21T00:48:24;70.40;;;40.97;;
21862;SDS011;11096;51.338;12.524;2022-08-21T00:50:58;62.85;;;37.60;;
21862;SDS011;11096;51.338;12.524;2022-08-21T00:53:27;61.80;;;37.80;;
21862;SDS011;11096;51.338;12.524;2022-08-21T00:55:54;55.92;;;35.25;;
21862;SDS011;11096;51.338;12.524;2022-08-21T00:58:20;54.85;;;34.67;;
21862;SDS011;11096;51.338;12.524;2022-08-21T01:00:47;52.05;;;34.30;;
21862;SDS011;11096;51.338;12.524;2022-08-21T01:03:16;51.95;;;35.10;;
21862;SDS011;11096;51.338;12.524;2022-08-21T01:05:44;54.03;;;32.35;;
21862;SDS011;11096;51.338;12.524;2022-08-21T01:08:10;49.88;;;32.63;;
21862;SDS011;11096;51.338;12.524;2022-08-21T01:10:38;50.70;;;31.63;;
21862;SDS011;11096;51.338;12.524;2022-08-21T01:13:05;48.78;;;30.20;;
21862;SDS011;11096;51.338;12.524;2022-08-21T01:15:36;46.03;;;28.95;;
21862;SDS011;11096;51.338;12.524;2022-08-21T01:18:07;41.42;;;28.05;;
21862;SDS011;11096;51.338;12.524;2022-08-21T01:20:36;38.47;;;26.45;;
21862;SDS011;11096;51.338;12.524;2022-08-21T01:23:03;39.35;;;27.67;;
21862;SDS011;11096;51.338;12.524;2022-08-21T01:25:30;39.38;;;26.60;;
21862;SDS011;11096;51.338;12.524;2022-08-21T01:27:57;47.10;;;26.83;;
21862;SDS011;11096;51.338;12.524;2022-08-21T01:30:26;38.35;;;24.67;;
21862;SDS011;11096;51.338;12.524;2022-08-21T01:32:53;35.60;;;23.48;;
21862;SDS011;11096;51.338;12.524;2022-08-21T01:35:20;37.03;;;24.33;;
21862;SDS011;11096;51.338;12.524;2022-08-21T01:37:46;30.42;;;22.17;;
21862;SDS011;11096;51.338;12.524;2022-08-21T01:40:13;34.97;;;23.23;;
21862;SDS011;11096;51.338;12.524;2022-08-21T01:42:41;35.60;;;24.63;;
21862;SDS011;11096;51.338;12.524;2022-08-21T01:45:07;36.25;;;23.63;;
21862;SDS011;11096;51.338;12.524;2022-08-21T01:47:34;35.33;;;23.33;;
21862;SDS011;11096;51.338;12.524;2022-08-21T01:50:00;35.00;;;22.98;;
21862;SDS011;11096;51.338;12.524;2022-08-21T01:52:28;32.50;;;21.60;;
21862;SDS011;11096;51.338;12.524;2022-08-21T01:54:53;28.67;;;21.05;;
21862;SDS011;11096;51.338;12.524;2022-08-21T01:57:18;28.33;;;20.50;;
21862;SDS011;11096;51.338;12.524;2022-08-21T01:59:44;30.40;;;20.10;;
21862;SDS011;11096;51.338;12.524;2022-08-21T02:02:09;33.75;;;20.17;;
21862;SDS011;11096;51.338;12.524;2022-08-21T02:04:34;29.42;;;20.15;;
21862;SDS011;11096;51.338;12.524;2022-08-21T02:07:00;27.17;;;20.17;;
21862;SDS011;11096;51.338;12.524;2022-08-21T02:09:26;26.83;;;19.23;;
21862;SDS011;11096;51.338;12.524;2022-08-21T02:11:53;28.33;;;20.70;;
21862;SDS011;11096;51.338;12.524;2022-08-21T02:14:19;28.30;;;20.60;;
21862;SDS011;11096;51.338;12.524;2022-08-21T02:16:45;31.02;;;20.08;;
21862;SDS011;11096;51.338;12.524;2022-08-21T02:19:11;37.88;;;21.30;;
21862;SDS011;11096;51.338;12.524;2022-08-21T02:21:38;28.00;;;18.95;;
21862;SDS011;11096;51.338;12.524;2022-08-21T02:24:04;25.23;;;18.55;;
21862;SDS011;11096;51.338;12.524;2022-08-21T02:26:29;24.67;;;16.95;;
21862;SDS011;11096;51.338;12.524;2022-08-21T02:28:55;24.38;;;17.92;;
21862;SDS011;11096;51.338;12.524;2022-08-21T02:31:20;26.23;;;18.50;;
21862;SDS011;11096;51.338;12.524;2022-08-21T02:33:46;27.30;;;19.00;;
21862;SDS011;11096;51.338;12.524;2022-08-21T02:36:11;27.63;;;19.10;;
21862;SDS011;11096;51.338;12.524;2022-08-21T02:38:38;28.48;;;18.92;;
21862;SDS011;11096;51.338;12.524;2022-08-21T02:41:09;28.40;;;19.25;;
21862;SDS011;11096;51.338;12.524;2022-08-21T02:43:40;28.35;;;18.77;;
21862;SDS011;11096;51.338;12.524;2022-08-21T02:46:06;30.23;;;18.77;;
21862;SDS011;11096;51.338;12.524;2022-08-21T02:48:32;27.98;;;18.67;;
21862;SDS011;11096;51.338;12.524;2022-08-21T02:51:00;27.23;;;17.75;;
21862;SDS011;11096;51.338;12.524;2022-08-21T02:53:28;26.27;;;18.50;;
21862;SDS011;11096;51.338;12.524;2022-08-21T02:55:56;27.20;;;17.65;;
21862;SDS011;11096;51.338;12.524;2022-08-21T02:58:24;26.73;;;16.67;;
21862;SDS011;11096;51.338;12.524;2022-08-21T03:00:53;25.63;;;17.23;;
21862;SDS011;11096;51.338;12.524;2022-08-21T03:03:19;22.10;;;15.30;;
21862;SDS011;11096;51.338;12.524;2022-08-21T03:05:46;25.42;;;15.52;;
21862;SDS011;11096;51.338;12.524;2022-08-21T03:08:13;21.92;;;15.70;;
21862;SDS011;11096;51.338;12.524;2022-08-21T03:10:41;24.63;;;14.43;;
21862;SDS011;11096;51.338;12.524;2022-08-21T03:13:09;21.30;;;13.88;;
21862;SDS011;11096;51.338;12.524;2022-08-21T03:15:35;22.85;;;14.40;;
21862;SDS011;11096;51.338;12.524;2022-08-21T03:18:01;19.90;;;14.25;;
21862;SDS011;11096;51.338;12.524;2022-08-21T03:20:27;18.85;;;13.93;;
21862;SDS011;11096;51.338;12.524;2022-08-21T03:22:54;19.67;;;13.02;;
21862;SDS011;11096;51.338;12.524;2022-08-21T03:25:20;16.55;;;12.60;;
21862;SDS011;11096;51.338;12.524;2022-08-21T03:27:47;18.67;;;11.77;;
21862;SDS011;11096;51.338;12.524;2022-08-21T03:30:14;18.10;;;11.27;;
21862;SDS011;11096;51.338;12.524;2022-08-21T03:32:40;18.85;;;11.55;;
21862;SDS011;11096;51.338;12.524;2022-08-21T03:35:06;19.08;;;12.18;;
21862;SDS011;11096;51.338;12.524;2022-08-21T03:37:32;17.80;;;11.27;;
21862;SDS011;11096;51.338;12.524;2022-08-21T03:39:58;13.30;;;10.93;;
21862;SDS011;11096;51.338;12.524;2022-08-21T03:42:24;16.02;;;10.70;;
21862;SDS011;11096;51.338;12.524;2022-08-21T03:44:49;15.23;;;11.07;;
21862;SDS011;11096;51.338;12.524;2022-08-21T03:47:15;16.65;;;11.38;;
21862;SDS011;11096;51.338;12.524;2022-08-21T03:49:40;17.98;;;10.57;;
21862;SDS011;11096;51.338;12.524;2022-08-21T03:52:06;18.60;;;11.25;;
21862;SDS011;11096;51.338;12.524;2022-08-21T03:54:31;15.25;;;11.00;;
21862;SDS011;11096;51.338;12.524;2022-08-21T03:56:57;16.58;;;10.75;;
21862;SDS011;11096;51.338;12.524;2022-08-21T03:59:22;14.50;;;10.00;;
21862;SDS011;11096;51.338;12.524;2022-08-21T04:01:52;14.75;;;9.43;;
21862;SDS011;11096;51.338;12.524;2022-08-21T04:04:19;17.83;;;9.70;;
21862;SDS011;11096;51.338;12.524;2022-08-21T04:06:45;15.30;;;9.55;;
21862;SDS011;11096;51.338;12.524;2022-08-21T04:09:10;12.45;;;9.85;;
21862;SDS011;11096;51.338;12.524;2022-08-21T04:11:36;12.90;;;9.95;;
21862;SDS011;11096;51.338;12.524;2022-08-21T04:14:01;12.20;;;8.90;;
21862;SDS011;11096;51.338;12.524;2022-08-21T04:16:27;12.93;;;9.00;;
21862;SDS011;11096;51.338;12.524;2022-08-21T04:18:52;14.38;;;9.07;;
21862;SDS011;11096;51.338;12.524;2022-08-21T04:21:18;13.57;;;9.60;;
21862;SDS011;11096;51.338;12.524;2022-08-21T04:23:43;12.82;;;8.75;;
21862;SDS011;11096;51.338;12.524;2022-08-21T04:26:08;13.88;;;8.63;;
21862;SDS011;11096;51.338;12.524;2022-08-21T04:28:34;15.15;;;8.57;;
21862;SDS011;11096;51.338;12.524;2022-08-21T04:30:59;12.40;;;8.35;;
21862;SDS011;11096;51.338;12.524;2022-08-21T04:33:25;12.48;;;8.57;;
21862;SDS011;11096;51.338;12.524;2022-08-21T04:35:50;12.82;;;8.27;;
21862;SDS011;11096;51.338;12.524;2022-08-21T04:38:16;11.73;;;8.10;;
21862;SDS011;11096;51.338;12.524;2022-08-21T04:40:42;12.30;;;8.05;;
21862;SDS011;11096;51.338;12.524;2022-08-21T04:43:08;16.38;;;7.65;;
21862;SDS011;11096;51.338;12.524;2022-08-21T04:45:39;15.57;;;8.55;;
21862;SDS011;11096;51.338;12.524;2022-08-21T04:48:10;10.68;;;7.82;;
21862;SDS011;11096;51.338;12.524;2022-08-21T04:53:07;11.90;;;7.72;;
21862;SDS011;11096;51.338;12.524;2022-08-21T04:55:35;8.70;;;7.57;;
21862;SDS011;11096;51.338;12.524;2022-08-21T04:58:02;10.80;;;7.47;;
21862;SDS011;11096;51.338;12.524;2022-08-21T05:00:30;10.48;;;7.47;;
21862;SDS011;11096;51.338;12.524;2022-08-21T05:02:56;10.15;;;6.93;;
21862;SDS011;11096;51.338;12.524;2022-08-21T05:05:23;10.75;;;6.60;;
21862;SDS011;11096;51.338;12.524;2022-08-21T05:07:49;10.48;;;6.55;;
21862;SDS011;11096;51.338;12.524;2022-08-21T05:10:15;9.85;;;7.05;;
21862;SDS011;11096;51.338;12.524;2022-08-21T05:12:41;9.68;;;6.90;;
21862;SDS011;11096;51.338;12.524;2022-08-21T05:15:08;11.45;;;7.03;;
21862;SDS011;11096;51.338;12.524;2022-08-21T05:17:34;10.27;;;6.75;;
21862;SDS011;11096;51.338;12.524;2022-08-21T05:20:00;11.18;;;7.35;;
21862;SDS011;11096;51.338;12.524;2022-08-21T05:22:26;12.70;;;6.80;;
21862;SDS011;11096;51.338;12.524;2022-08-21T05:24:52;15.50;;;7.05;;
21862;SDS011;11096;51.338;12.524;2022-08-21T05:27:17;11.38;;;6.43;;
21862;SDS011;11096;51.338;12.524;2022-08-21T05:29:43;9.95;;;6.53;;
21862;SDS011;11096;51.338;12.524;2022-08-21T05:32:09;13.30;;;7.18;;
21862;SDS011;11096;51.338;12.524;2022-08-21T05:34:35;11.15;;;6.50;;
21862;SDS011;11096;51.338;12.524;2022-08-21T05:37:01;10.85;;;6.60;;
21862;SDS011;11096;51.338;12.524;2022-08-21T05:39:26;13.77;;;6.57;;
21862;SDS011;11096;51.338;12.524;2022-08-21T05:41:52;13.88;;;6.53;;
21862;SDS011;11096;51.338;12.524;2022-08-21T05:44:17;13.45;;;6.80;;
21862;SDS011;11096;51.338;12.524;2022-08-21T05:46:43;10.98;;;6.28;;
21862;SDS011;11096;51.338;12.524;2022-08-21T05:49:08;8.48;;;6.05;;
21862;SDS011;11096;51.338;12.524;2022-08-21T05:51:34;14.43;;;6.25;;
21862;SDS011;11096;51.338;12.524;2022-08-21T05:54:00;13.27;;;6.32;;
21862;SDS011;11096;51.338;12.524;2022-08-21T05:56:25;14.85;;;6.55;;
21862;SDS011;11096;51.338;12.524;2022-08-21T05:58:51;11.15;;;6.07;;
21862;SDS011;11096;51.338;12.524;2022-08-21T06:01:16;13.82;;;6.50;;
21862;SDS011;11096;51.338;12.524;2022-08-21T06:03:41;10.15;;;6.03;;
21862;SDS011;11096;51.338;12.524;2022-08-21T06:06:08;10.27;;;6.03;;
21862;SDS011;11096;51.338;12.524;2022-08-21T06:08:34;7.57;;;5.88;;
21862;SDS011;11096;51.338;12.524;2022-08-21T06:11:00;9.02;;;5.90;;
21862;SDS011;11096;51.338;12.524;2022-08-21T06:13:27;7.00;;;5.63;;
21862;SDS011;11096;51.338;12.524;2022-08-21T06:16:06;10.68;;;5.70;;
21862;SDS011;11096;51.338;12.524;2022-08-21T06:18:34;10.25;;;5.40;;
21862;SDS011;11096;51.338;12.524;2022-08-21T06:21:00;8.23;;;5.45;;
21862;SDS011;11096;51.338;12.524;2022-08-21T06:23:26;8.50;;;5.72;;
21862;SDS011;11096;51.338;12.524;2022-08-21T06:25:52;8.98;;;5.47;;
21862;SDS011;11096;51.338;12.524;2022-08-21T06:28:17;10.27;;;5.47;;
21862;SDS011;11096;51.338;12.524;2022-08-21T06:30:42;12.40;;;5.47;;
21862;SDS011;11096;51.338;12.524;2022-08-21T06:33:08;10.00;;;5.30;;
21862;SDS011;11096;51.338;12.524;2022-08-21T06:35:33;10.63;;;5.03;;
21862;SDS011;11096;51.338;12.524;2022-08-21T06:38:00;13.75;;;5.32;;
21862;SDS011;11096;51.338;12.524;2022-08-21T06:40:26;12.40;;;4.55;;
21862;SDS011;11096;51.338;12.524;2022-08-21T06:42:53;12.23;;;4.60;;
21862;SDS011;11096;51.338;12.524;2022-08-21T06:45:18;10.30;;;5.13;;
21862;SDS011;11096;51.338;12.524;2022-08-21T06:47:44;10.30;;;4.93;;
21862;SDS011;11096;51.338;12.524;2022-08-21T06:50:09;11.95;;;4.43;;
21862;SDS011;11096;51.338;12.524;2022-08-21T06:52:35;7.65;;;3.92;;
21862;SDS011;11096;51.338;12.524;2022-08-21T06:55:02;8.95;;;3.63;;
21862;SDS011;11096;51.338;12.524;2022-08-21T06:57:30;11.77;;;7.85;;
21862;SDS011;11096;51.338;12.524;2022-08-21T06:59:55;10.45;;;4.53;;
21862;SDS011;11096;51.338;12.524;2022-08-21T07:02:20;13.38;;;4.95;;
21862;SDS011;11096;51.338;12.524;2022-08-21T07:04:46;8.48;;;3.95;;
21862;SDS011;11096;51.338;12.524;2022-08-21T07:07:11;9.02;;;3.67;;
21862;SDS011;11096;51.338;12.524;2022-08-21T07:09:37;7.90;;;3.80;;
21862;SDS011;11096;51.338;12.524;2022-08-21T07:12:02;10.98;;;3.83;;
21862;SDS011;11096;51.338;12.524;2022-08-21T07:14:28;9.73;;;3.53;;
21862;SDS011;11096;51.338;12.524;2022-08-21T07:16:53;7.95;;;4.03;;
21862;SDS011;11096;51.338;12.524;2022-08-21T07:19:19;9.30;;;4.25;;
21862;SDS011;11096;51.338;12.524;2022-08-21T07:21:45;7.80;;;4.10;;
21862;SDS011;11096;51.338;12.524;2022-08-21T07:24:11;8.07;;;3.80;;
21862;SDS011;11096;51.338;12.524;2022-08-21T07:26:37;10.35;;;3.75;;
21862;SDS011;11096;51.338;12.524;2022-08-21T07:29:03;7.38;;;4.55;;
21862;SDS011;11096;51.338;12.524;2022-08-21T07:31:29;12.27;;;4.65;;
21862;SDS011;11096;51.338;12.524;2022-08-21T07:33:54;10.20;;;4.50;;
21862;SDS011;11096;51.338;12.524;2022-08-21T07:36:20;8.40;;;4.82;;
21862;SDS011;11096;51.338;12.524;2022-08-21T07:38:46;9.70;;;4.68;;
21862;SDS011;11096;51.338;12.524;2022-08-21T07:41:15;11.80;;;4.30;;
21862;SDS011;11096;51.338;12.524;2022-08-21T07:43:43;10.23;;;4.85;;
21862;SDS011;11096;51.338;12.524;2022-08-21T07:46:09;8.05;;;4.05;;
21862;SDS011;11096;51.338;12.524;2022-08-21T07:48:35;7.53;;;4.07;;
21862;SDS011;11096;51.338;12.524;2022-08-21T07:51:01;7.57;;;4.38;;
21862;SDS011;11096;51.338;12.524;2022-08-21T07:53:30;9.35;;;3.80;;
21862;SDS011;11096;51.338;12.524;2022-08-21T07:55:59;6.95;;;3.00;;
21862;SDS011;11096;51.338;12.524;2022-08-21T07:58:25;6.85;;;3.33;;
21862;SDS011;11096;51.338;12.524;2022-08-21T08:00:50;9.45;;;3.42;;
21862;SDS011;11096;51.338;12.524;2022-08-21T08:03:16;8.52;;;2.85;;
21862;SDS011;11096;51.338;12.524;2022-08-21T08:05:42;7.70;;;2.35;;
21862;SDS011;11096;51.338;12.524;2022-08-21T08:08:08;9.60;;;2.97;;
21862;SDS011;11096;51.338;12.524;2022-08-21T08:10:34;6.57;;;2.60;;
21862;SDS011;11096;51.338;12.524;2022-08-21T08:13:00;6.07;;;2.40;;
21862;SDS011;11096;51.338;12.524;2022-08-21T08:15:27;5.57;;;2.53;;
21862;SDS011;11096;51.338;12.524;2022-08-21T08:17:53;7.13;;;2.63;;
21862;SDS011;11096;51.338;12.524;2022-08-21T08:20:20;5.18;;;2.30;;
21862;SDS011;11096;51.338;12.524;2022-08-21T08:22:47;4.63;;;2.30;;
21862;SDS011;11096;51.338;12.524;2022-08-21T08:25:13;6.32;;;2.67;;
21862;SDS011;11096;51.338;12.524;2022-08-21T08:27:40;11.05;;;2.40;;
21862;SDS011;11096;51.338;12.524;2022-08-21T08:30:06;6.85;;;2.50;;
21862;SDS011;11096;51.338;12.524;2022-08-21T08:32:33;5.93;;;1.83;;
21862;SDS011;11096;51.338;12.524;2022-08-21T08:34:58;4.38;;;1.80;;
21862;SDS011;11096;51.338;12.524;2022-08-21T08:37:24;5.82;;;2.30;;
21862;SDS011;11096;51.338;12.524;2022-08-21T08:39:50;8.02;;;2.30;;
21862;SDS011;11096;51.338;12.524;2022-08-21T08:42:17;6.72;;;2.13;;
21862;SDS011;11096;51.338;12.524;2022-08-21T08:44:44;5.55;;;1.90;;
21862;SDS011;11096;51.338;12.524;2022-08-21T08:47:12;6.32;;;2.10;;
21862;SDS011;11096;51.338;12.524;2022-08-21T08:49:49;5.88;;;1.90;;
21862;SDS011;11096;51.338;12.524;2022-08-21T08:52:27;7.53;;;2.53;;
21862;SDS011;11096;51.338;12.524;2022-08-21T08:55:08;7.68;;;1.80;;
21862;SDS011;11096;51.338;12.524;2022-08-21T08:57:38;7.18;;;1.80;;
21862;SDS011;11096;51.338;12.524;2022-08-21T09:00:08;9.57;;;2.17;;
21862;SDS011;11096;51.338;12.524;2022-08-21T09:02:38;2.75;;;1.65;;
21862;SDS011;11096;51.338;12.524;2022-08-21T09:05:05;3.38;;;1.40;;
21862;SDS011;11096;51.338;12.524;2022-08-21T09:07:39;3.83;;;1.52;;
21862;SDS011;11096;51.338;12.524;2022-08-21T09:13:18;5.93;;;1.90;;
21862;SDS011;11096;51.338;12.524;2022-08-21T09:19:03;5.05;;;1.40;;
21862;SDS011;11096;51.338;12.524;2022-08-21T09:21:39;4.85;;;1.80;;
21862;SDS011;11096;51.338;12.524;2022-08-21T09:27:04;9.02;;;1.80;;
21862;SDS011;11096;51.338;12.524;2022-08-21T09:29:34;5.57;;;1.55;;
21862;SDS011;11096;51.338;12.524;2022-08-21T09:32:02;4.70;;;1.85;;
21862;SDS011;11096;51.338;12.524;2022-08-21T09:34:34;10.40;;;1.95;;
21862;SDS011;11096;51.338;12.524;2022-08-21T09:37:01;3.20;;;1.42;;
21862;SDS011;11096;51.338;12.524;2022-08-21T09:39:29;5.90;;;1.83;;
21862;SDS011;11096;51.338;12.524;2022-08-21T09:44:25;7.97;;;1.65;;
21862;SDS011;11096;51.338;12.524;2022-08-21T09:46:56;6.82;;;1.52;;
21862;SDS011;11096;51.338;12.524;2022-08-21T09:49:35;5.20;;;1.08;;
21862;SDS011;11096;51.338;12.524;2022-08-21T09:52:03;6.03;;;1.70;;
21862;SDS011;11096;51.338;12.524;2022-08-21T09:54:40;4.30;;;1.38;;
21862;SDS011;11096;51.338;12.524;2022-08-21T09:59:53;7.78;;;1.70;;
21862;SDS011;11096;51.338;12.524;2022-08-21T10:02:23;4.20;;;1.33;;
21862;SDS011;11096;51.338;12.524;2022-08-21T10:04:53;7.55;;;1.70;;
21862;SDS011;11096;51.338;12.524;2022-08-21T10:07:21;9.73;;;1.90;;
21862;SDS011;11096;51.338;12.524;2022-08-21T10:10:04;2.78;;;1.25;;
21862;SDS011;11096;51.338;12.524;2022-08-21T10:12:41;8.18;;;2.00;;
21862;SDS011;11096;51.338;12.524;2022-08-21T10:15:42;8.48;;;1.48;;
21862;SDS011;11096;51.338;12.524;2022-08-21T10:32:05;4.72;;;1.38;;
21862;SDS011;11096;51.338;12.524;2022-08-21T10:37:51;6.72;;;1.30;;
21862;SDS011;11096;51.338;12.524;2022-08-21T10:43:30;6.32;;;1.58;;
21862;SDS011;11096;51.338;12.524;2022-08-21T10:49:11;6.60;;;1.50;;
21862;SDS011;11096;51.338;12.524;2022-08-21T10:57:29;6.70;;;1.30;;
21862;SDS011;11096;51.338;12.524;2022-08-21T11:00:05;4.32;;;1.50;;
21862;SDS011;11096;51.338;12.524;2022-08-21T11:05:11;7.93;;;1.60;;
21862;SDS011;11096;51.338;12.524;2022-08-21T11:07:45;6.57;;;1.58;;
21862;SDS011;11096;51.338;12.524;2022-08-21T11:10:23;6.38;;;1.33;;
21862;SDS011;11096;51.338;12.524;2022-08-21T11:12:56;4.18;;;1.38;;
21862;SDS011;11096;51.338;12.524;2022-08-21T11:21:58;8.18;;;1.50;;
21862;SDS011;11096;51.338;12.524;2022-08-21T11:24:30;7.40;;;1.42;;
21862;SDS011;11096;51.338;12.524;2022-08-21T11:30:10;4.40;;;1.17;;
21862;SDS011;11096;51.338;12.524;2022-08-21T11:32:57;8.35;;;1.60;;
21862;SDS011;11096;51.338;12.524;2022-08-21T11:35:39;4.53;;;1.75;;
21862;SDS011;11096;51.338;12.524;2022-08-21T11:38:13;5.72;;;1.20;;
21862;SDS011;11096;51.338;12.524;2022-08-21T11:49:06;5.43;;;1.48;;
21862;SDS011;11096;51.338;12.524;2022-08-21T11:51:40;6.07;;;1.35;;
21862;SDS011;11096;51.338;12.524;2022-08-21T11:54:16;6.43;;;1.42;;
21862;SDS011;11096;51.338;12.524;2022-08-21T11:57:52;5.95;;;1.30;;
21862;SDS011;11096;51.338;12.524;2022-08-21T12:02:59;9.23;;;1.27;;
21862;SDS011;11096;51.338;12.524;2022-08-21T12:05:35;7.40;;;1.08;;
21862;SDS011;11096;51.338;12.524;2022-08-21T12:10:38;4.38;;;1.02;;
21862;SDS011;11096;51.338;12.524;2022-08-21T12:13:21;4.50;;;1.10;;
21862;SDS011;11096;51.338;12.524;2022-08-21T12:15:49;5.80;;;1.30;;
21862;SDS011;11096;51.338;12.524;2022-08-21T12:18:28;6.05;;;1.42;;
21862;SDS011;11096;51.338;12.524;2022-08-21T12:21:15;5.95;;;1.50;;
21862;SDS011;11096;51.338;12.524;2022-08-21T12:23:59;5.57;;;1.10;;
21862;SDS011;11096;51.338;12.524;2022-08-21T12:26:52;7.20;;;1.55;;
21862;SDS011;11096;51.338;12.524;2022-08-21T12:29:23;7.53;;;1.27;;
21862;SDS011;11096;51.338;12.524;2022-08-21T12:31:54;7.60;;;1.40;;
21862;SDS011;11096;51.338;12.524;2022-08-21T12:34:51;7.13;;;1.60;;
21862;SDS011;11096;51.338;12.524;2022-08-21T12:37:21;10.05;;;1.50;;
21862;SDS011;11096;51.338;12.524;2022-08-21T12:39:52;4.72;;;1.30;;
21862;SDS011;11096;51.338;12.524;2022-08-21T12:42:21;7.28;;;1.30;;
21862;SDS011;11096;51.338;12.524;2022-08-21T12:44:50;6.45;;;1.52;;
21862;SDS011;11096;51.338;12.524;2022-08-21T12:51:04;6.13;;;1.27;;
21862;SDS011;11096;51.338;12.524;2022-08-21T12:56:21;5.22;;;1.00;;
21862;SDS011;11096;51.338;12.524;2022-08-21T12:58:50;6.47;;;1.08;;
21862;SDS011;11096;51.338;12.524;2022-08-21T13:03:50;6.45;;;1.30;;
21862;SDS011;11096;51.338;12.524;2022-08-21T13:06:18;7.68;;;1.58;;
21862;SDS011;11096;51.338;12.524;2022-08-21T13:08:45;4.00;;;1.27;;
21862;SDS011;11096;51.338;12.524;2022-08-21T13:11:14;9.20;;;1.52;;
21862;SDS011;11096;51.338;12.524;2022-08-21T13:13:42;6.18;;;1.27;;
21862;SDS011;11096;51.338;12.524;2022-08-21T13:16:08;4.38;;;1.30;;
21862;SDS011;11096;51.338;12.524;2022-08-21T13:18:35;2.97;;;1.10;;
21862;SDS011;11096;51.338;12.524;2022-08-21T13:21:05;5.88;;;1.30;;
21862;SDS011;11096;51.338;12.524;2022-08-21T13:23:34;9.57;;;1.65;;
21862;SDS011;11096;51.338;12.524;2022-08-21T13:26:00;6.18;;;1.40;;
21862;SDS011;11096;51.338;12.524;2022-08-21T13:28:34;9.07;;;1.50;;
21862;SDS011;11096;51.338;12.524;2022-08-21T13:31:02;5.45;;;1.50;;
21862;SDS011;11096;51.338;12.524;2022-08-21T13:33:34;6.40;;;1.65;;
21862;SDS011;11096;51.338;12.524;2022-08-21T13:38:29;5.38;;;1.65;;
21862;SDS011;11096;51.338;12.524;2022-08-21T13:40:58;6.85;;;1.60;;
21862;SDS011;11096;51.338;12.524;2022-08-21T13:43:28;3.72;;;1.25;;
21862;SDS011;11096;51.338;12.524;2022-08-21T13:45:57;7.55;;;1.63;;
21862;SDS011;11096;51.338;12.524;2022-08-21T13:48:25;6.18;;;1.75;;
21862;SDS011;11096;51.338;12.524;2022-08-21T13:50:54;4.63;;;1.33;;
21862;SDS011;11096;51.338;12.524;2022-08-21T13:55:54;7.88;;;1.33;;
21862;SDS011;11096;51.338;12.524;2022-08-21T13:58:27;5.88;;;1.33;;
21862;SDS011;11096;51.338;12.524;2022-08-21T14:01:17;6.65;;;1.83;;
21862;SDS011;11096;51.338;12.524;2022-08-21T14:03:43;3.83;;;1.52;;
21862;SDS011;11096;51.338;12.524;2022-08-21T14:06:16;3.28;;;1.17;;
21862;SDS011;11096;51.338;12.524;2022-08-21T14:08:48;5.15;;;1.60;;
21862;SDS011;11096;51.338;12.524;2022-08-21T14:11:16;7.68;;;1.70;;
21862;SDS011;11096;51.338;12.524;2022-08-21T14:13:43;6.07;;;1.77;;
21862;SDS011;11096;51.338;12.524;2022-08-21T14:16:17;6.22;;;1.60;;
21862;SDS011;11096;51.338;12.524;2022-08-21T14:18:48;8.07;;;1.75;;
21862;SDS011;11096;51.338;12.524;2022-08-21T14:21:27;7.90;;;1.67;;
21862;SDS011;11096;51.338;12.524;2022-08-21T14:26:32;7.55;;;1.30;;
21862;SDS011;11096;51.338;12.524;2022-08-21T14:29:00;6.10;;;1.70;;
21862;SDS011;11096;51.338;12.524;2022-08-21T14:31:28;4.50;;;1.50;;
21862;SDS011;11096;51.338;12.524;2022-08-21T14:33:55;3.40;;;1.40;;
21862;SDS011;11096;51.338;12.524;2022-08-21T14:36:20;6.97;;;1.40;;
21862;SDS011;11096;51.338;12.524;2022-08-21T14:38:46;5.75;;;1.52;;
21862;SDS011;11096;51.338;12.524;2022-08-21T14:43:46;4.45;;;1.40;;
21862;SDS011;11096;51.338;12.524;2022-08-21T14:46:12;5.93;;;1.38;;
21862;SDS011;11096;51.338;12.524;2022-08-21T14:48:46;7.18;;;1.30;;
21862;SDS011;11096;51.338;12.524;2022-08-21T14:51:12;9.52;;;1.60;;
21862;SDS011;11096;51.338;12.524;2022-08-21T14:53:39;7.10;;;2.10;;
21862;SDS011;11096;51.338;12.524;2022-08-21T14:56:04;5.78;;;1.35;;
21862;SDS011;11096;51.338;12.524;2022-08-21T14:58:31;3.67;;;1.60;;
21862;SDS011;11096;51.338;12.524;2022-08-21T15:00:57;3.88;;;1.13;;
21862;SDS011;11096;51.338;12.524;2022-08-21T15:03:23;5.05;;;1.40;;
21862;SDS011;11096;51.338;12.524;2022-08-21T15:05:50;4.43;;;1.50;;
21862;SDS011;11096;51.338;12.524;2022-08-21T15:08:17;6.35;;;1.20;;
21862;SDS011;11096;51.338;12.524;2022-08-21T15:10:43;3.35;;;1.50;;
21862;SDS011;11096;51.338;12.524;2022-08-21T15:13:09;5.18;;;1.60;;
21862;SDS011;11096;51.338;12.524;2022-08-21T15:15:43;7.15;;;1.75;;
21862;SDS011;11096;51.338;12.524;2022-08-21T15:18:10;5.00;;;1.73;;
21862;SDS011;11096;51.338;12.524;2022-08-21T15:20:35;5.35;;;2.60;;
21862;SDS011;11096;51.338;12.524;2022-08-21T15:23:02;4.65;;;1.50;;
21862;SDS011;11096;51.338;12.524;2022-08-21T15:25:29;9.68;;;1.67;;
21862;SDS011;11096;51.338;12.524;2022-08-21T15:27:54;5.43;;;1.38;;
21862;SDS011;11096;51.338;12.524;2022-08-21T15:30:20;4.30;;;1.65;;
21862;SDS011;11096;51.338;12.524;2022-08-21T15:32:45;5.10;;;1.55;;
21862;SDS011;11096;51.338;12.524;2022-08-21T15:35:11;5.25;;;1.58;;
21862;SDS011;11096;51.338;12.524;2022-08-21T15:37:37;6.90;;;1.50;;
21862;SDS011;11096;51.338;12.524;2022-08-21T15:40:02;5.97;;;1.42;;
21862;SDS011;11096;51.338;12.524;2022-08-21T15:42:30;5.55;;;1.65;;
21862;SDS011;11096;51.338;12.524;2022-08-21T15:44:56;8.07;;;1.65;;
21862;SDS011;11096;51.338;12.524;2022-08-21T15:47:23;6.38;;;2.00;;
21862;SDS011;11096;51.338;12.524;2022-08-21T15:49:53;8.68;;;2.17;;
21862;SDS011;11096;51.338;12.524;2022-08-21T15:52:19;4.50;;;1.60;;
21862;SDS011;11096;51.338;12.524;2022-08-21T15:54:45;5.22;;;1.30;;
21862;SDS011;11096;51.338;12.524;2022-08-21T15:57:12;6.25;;;1.33;;
21862;SDS011;11096;51.338;12.524;2022-08-21T15:59:40;4.97;;;1.48;;
21862;SDS011;11096;51.338;12.524;2022-08-21T16:02:19;4.22;;;1.63;;
21862;SDS011;11096;51.338;12.524;2022-08-21T16:04:48;2.55;;;1.40;;